Time;durP1;ratioP1;P1;durP2;ratioP2;P2;SDS_P1;SDS_P2;PMS_P1;PMS_P2;Temp;Humidity;BMP_temperature;BMP_pressure;BME280_temperature;BME280_humidity;BME280_pressure;Samples;Min_cycle;Max_cycle;Signal;HPM_P1;HPM_P2
2022/04/06 00:01:39;;;;;;;;;;;;;;;-144.19;100.00;76079.28;5030456;28;19925;-92
2022/04/06 00:04:06;;;;;;;;;;;;;;;-144.19;100.00;76065.50;5013706;28;19998;-90
2022/04/06 00:06:32;;;;;;;;;;;;;;;-144.19;100.00;76051.72;5014326;28;20016;-92
2022/04/06 00:09:15;;;;;;;;;;;;;;;-144.19;100.00;76051.72;5016446;28;19940;-91
2022/04/06 00:11:42;;;;;;;;;;;;;;;-144.19;100.00;76047.78;5014336;28;19925;-89
2022/04/06 00:14:08;;;;;;;;;;;;;;;-144.19;100.00;76045.81;5031126;28;20446;-90
2022/04/06 00:16:34;;;;;;;;;;;;;;;-144.19;100.00;76057.63;5014872;28;19936;-89
2022/04/06 00:19:00;;;;;;;;;;;;;;;-144.19;100.00;76043.84;5034922;28;20367;-89
2022/04/06 00:23:56;;;;;;;;;;;;;;;-144.19;100.00;76043.84;5054827;28;20031;-86
2022/04/06 00:26:23;;;;;;;;;;;;;;;-144.19;100.00;76043.84;5052379;28;20028;-85
2022/04/06 00:28:50;;;;;;;;;;;;;;;-144.19;100.00;76032.03;5056088;28;19932;-87
2022/04/06 00:31:17;;;;;;;;;;;;;;;-144.19;100.00;76028.09;5038210;28;19925;-86
2022/04/06 00:33:43;;;;;;;;;;;;;;;-144.19;100.00;76032.03;5037611;28;19925;-88
2022/04/06 00:36:13;;;;;;;;;;;;;;;-144.19;100.00;76037.94;5037729;28;19952;-86
2022/04/06 00:38:39;;;;;;;;;;;;;;;-144.19;100.00;76022.19;5056986;28;20000;-87
2022/04/06 00:41:05;;;;;;;;;;;;;;;-144.19;100.00;76020.22;5054366;28;19925;-88
2022/04/06 00:43:32;;;;;;;;;;;;;;;-144.19;100.00;76034.00;5039856;28;19956;-85
2022/04/06 00:45:58;;;;;;;;;;;;;;;-144.19;100.00;76043.84;5057649;28;19925;-86
2022/04/06 00:48:24;;;;;;;;;;;;;;;-144.19;100.00;76028.09;5039386;28;19988;-87
2022/04/06 00:50:51;;;;;;;;;;;;;;;-144.19;100.00;76008.41;5056491;28;19929;-84
2022/04/06 00:53:18;;;;;;;;;;;;;;;-144.19;100.00;76000.53;5056670;28;19951;-89
2022/04/06 00:55:44;;;;;;;;;;;;;;;-144.19;100.00;76020.22;5055510;28;20379;-85
2022/04/06 00:58:11;;;;;;;;;;;;;;;-144.19;100.00;75986.78;5057130;28;20424;-85
2022/04/06 01:00:37;;;;;;;;;;;;;;;-144.19;100.00;75994.66;5055489;28;19924;-87
2022/04/06 01:03:03;;;;;;;;;;;;;;;-144.19;100.00;76002.50;5057750;28;19963;-87
2022/04/06 01:05:30;;;;;;;;;;;;;;;-144.19;100.00;75998.59;5041489;28;19997;-88
2022/04/06 01:08:00;;;;;;;;;;;;;;;-144.19;100.00;76004.47;5056726;28;19928;-83
2022/04/06 01:10:26;;;;;;;;;;;;;;;-144.19;100.00;75992.69;5039166;28;20007;-87
2022/04/06 01:12:54;;;;;;;;;;;;;;;-144.19;100.00;75992.69;5056896;28;19925;-86
2022/04/06 01:15:20;;;;;;;;;;;;;;;-144.19;100.00;75984.81;5058156;28;19924;-86
2022/04/06 01:17:46;;;;;;;;;;;;;;;-144.19;100.00;75984.81;5058539;28;20395;-85
2022/04/06 01:20:13;;;;;;;;;;;;;;;-144.19;100.00;75976.94;5039424;28;19929;-82
2022/04/06 01:22:39;;;;;;;;;;;;;;;-144.19;100.00;75984.81;5057590;28;20363;-84
2022/04/06 01:25:06;;;;;;;;;;;;;;;-144.19;100.00;75976.94;5040413;28;19931;-84
2022/04/06 01:27:32;;;;;;;;;;;;;;;-144.19;100.00;75986.78;5057274;28;20379;-86
2022/04/06 01:29:59;;;;;;;;;;;;;;;-144.19;100.00;75973.00;5039724;28;20410;-85
2022/04/06 01:32:26;;;;;;;;;;;;;;;-144.19;100.00;75978.91;5038673;28;20007;-86
2022/04/06 01:34:54;;;;;;;;;;;;;;;-144.19;100.00;75965.13;5056810;28;19935;-86
2022/04/06 01:37:21;;;;;;;;;;;;;;;-144.19;100.00;75957.25;5057367;28;19929;-86
2022/04/06 01:39:48;;;;;;;;;;;;;;;-144.19;100.00;75961.19;5057268;28;20424;-84
2022/04/06 01:42:15;;;;;;;;;;;;;;;-144.19;100.00;75965.13;5056582;28;19936;-87
2022/04/06 01:44:44;;;;;;;;;;;;;;;-144.19;100.00;75961.19;5057787;28;20328;-84
2022/04/06 01:47:11;;;;;;;;;;;;;;;-144.19;100.00;75961.19;5039253;28;19935;-85
2022/04/06 01:52:23;;;;;;;;;;;;;;;-144.19;100.00;75961.19;5057085;28;19936;-86
2022/04/06 01:54:53;;;;;;;;;;;;;;;-144.19;100.00;75957.25;5056279;28;20015;-86
2022/04/06 01:57:20;;;;;;;;;;;;;;;-144.19;100.00;75961.19;5039254;28;19929;-85
2022/04/06 01:59:47;;;;;;;;;;;;;;;-144.19;100.00;75961.19;5057297;28;19924;-85
2022/04/06 02:02:15;;;;;;;;;;;;;;;-144.19;100.00;75959.22;5053946;28;19925;-86
2022/04/06 02:04:41;;;;;;;;;;;;;;;-144.19;100.00;75953.31;5038754;28;20395;-85
2022/04/06 02:07:11;;;;;;;;;;;;;;;-144.19;100.00;75957.25;5054901;28;20308;-85
2022/04/06 02:09:39;;;;;;;;;;;;;;;-144.19;100.00;75949.38;5038309;28;19924;-87
2022/04/06 02:12:06;;;;;;;;;;;;;;;-144.19;100.00;75945.44;5036902;28;19931;-83
2022/04/06 02:14:32;;;;;;;;;;;;;;;-144.19;100.00;75945.44;5037487;28;20015;-86
2022/04/06 02:16:59;;;;;;;;;;;;;;;-144.19;100.00;75953.31;5055720;28;19947;-87
2022/04/06 02:19:26;;;;;;;;;;;;;;;-144.19;100.00;75951.34;5037406;28;19974;-85
2022/04/06 02:21:52;;;;;;;;;;;;;;;-144.19;100.00;75949.38;5054542;28;19972;-88
2022/04/06 02:24:19;;;;;;;;;;;;;;;-144.19;100.00;75941.50;5035369;28;20445;-87
2022/04/06 02:26:45;;;;;;;;;;;;;;;-144.19;100.00;75955.28;5055029;28;19924;-87
2022/04/06 02:29:12;;;;;;;;;;;;;;;-144.19;100.00;75937.56;5037850;28;20340;-86
2022/04/06 02:31:38;;;;;;;;;;;;;;;-144.19;100.00;75945.44;5044405;28;19925;-85
2022/04/06 02:34:05;;;;;;;;;;;;;;;-144.19;100.00;75939.53;5053755;28;19925;-83
2022/04/06 02:36:31;;;;;;;;;;;;;;;-144.19;100.00;75945.44;5038098;28;20256;-86
2022/04/06 02:38:59;;;;;;;;;;;;;;;-144.19;100.00;75953.31;5054354;28;19924;-85
2022/04/06 02:41:26;;;;;;;;;;;;;;;-144.19;100.00;75943.47;5034982;28;19929;-88
2022/04/06 02:43:53;;;;;;;;;;;;;;;-144.19;100.00;75955.28;5036014;28;19932;-87
2022/04/06 02:46:20;;;;;;;;;;;;;;;-144.19;100.00;75953.31;5036591;28;20368;-88
2022/04/06 02:48:46;;;;;;;;;;;;;;;-144.19;100.00;75941.50;5055570;28;19924;-89
2022/04/06 02:51:13;;;;;;;;;;;;;;;-144.19;100.00;75941.50;5036799;28;19931;-88
2022/04/06 02:53:39;;;;;;;;;;;;;;;-144.19;100.00;75941.50;5035946;28;19925;-87
2022/04/06 02:56:05;;;;;;;;;;;;;;;-144.19;100.00;75935.59;5036268;28;20016;-85
2022/04/06 02:58:32;;;;;;;;;;;;;;;-144.19;100.00;75947.41;5054689;28;19932;-84
2022/04/06 03:00:58;;;;;;;;;;;;;;;-144.19;100.00;75945.44;5053445;28;20272;-87
2022/04/06 03:03:26;;;;;;;;;;;;;;;-144.19;100.00;75949.38;5053851;28;19967;-86
2022/04/06 03:05:52;;;;;;;;;;;;;;;-144.19;100.00;75941.50;5036446;28;20131;-87
2022/04/06 03:08:19;;;;;;;;;;;;;;;-144.19;100.00;75925.75;5052925;28;20397;-88
2022/04/06 03:10:45;;;;;;;;;;;;;;;-144.19;100.00;75931.66;5034707;28;19971;-86
2022/04/06 03:13:12;;;;;;;;;;;;;;;-144.19;100.00;75927.72;5035584;28;19947;-86
2022/04/06 03:15:38;;;;;;;;;;;;;;;-144.19;100.00;75945.44;5053535;28;20298;-86
2022/04/06 03:18:05;;;;;;;;;;;;;;;-144.19;100.00;75949.38;5036289;28;19925;-88
2022/04/06 03:20:31;;;;;;;;;;;;;;;-144.19;100.00;75957.25;5035411;28;19925;-86
2022/04/06 03:22:58;;;;;;;;;;;;;;;-144.19;100.00;75953.31;5036073;28;20380;-87
2022/04/06 03:25:25;;;;;;;;;;;;;;;-144.19;100.00;75945.44;5053989;28;19929;-87
2022/04/06 03:27:51;;;;;;;;;;;;;;;-144.19;100.00;75933.63;5036257;28;19925;-87
2022/04/06 03:30:18;;;;;;;;;;;;;;;-144.19;100.00;75937.56;5053002;28;19925;-88
2022/04/06 03:32:44;;;;;;;;;;;;;;;-144.19;100.00;75945.44;5037953;28;20015;-86
2022/04/06 03:35:11;;;;;;;;;;;;;;;-144.19;100.00;75945.44;5038661;28;20367;-87
2022/04/06 03:37:37;;;;;;;;;;;;;;;-144.19;100.00;75953.31;5036439;28;20477;-89
2022/04/06 03:40:06;;;;;;;;;;;;;;;-144.19;100.00;75951.34;5036553;28;19925;-87
2022/04/06 03:42:33;;;;;;;;;;;;;;;-144.19;100.00;75943.47;5053569;28;20436;-88
2022/04/06 03:45:00;;;;;;;;;;;;;;;-144.19;100.00;75951.34;5037406;28;19932;-88
2022/04/06 03:47:32;;;;;;;;;;;;;;;-144.19;100.00;75953.31;5037024;28;20010;-89
2022/04/06 03:49:59;;;;;;;;;;;;;;;-144.19;100.00;75941.50;5036292;28;19988;-86
2022/04/06 03:52:29;;;;;;;;;;;;;;;-144.19;100.00;75941.50;5035136;28;19924;-89
2022/04/06 03:54:55;;;;;;;;;;;;;;;-144.19;100.00;75963.16;5036403;28;19925;-89
2022/04/06 03:57:22;;;;;;;;;;;;;;;-144.19;100.00;75945.44;5054326;28;19925;-89
2022/04/06 03:59:48;;;;;;;;;;;;;;;-144.19;100.00;75935.59;5053923;28;19937;-88
2022/04/06 04:02:15;;;;;;;;;;;;;;;-144.19;100.00;75937.56;5035124;28;20106;-88
2022/04/06 04:04:41;;;;;;;;;;;;;;;-144.19;100.00;75945.44;5036032;28;19929;-84
2022/04/06 04:07:07;;;;;;;;;;;;;;;-144.19;100.00;75937.56;5034698;28;19978;-89
2022/04/06 04:09:34;;;;;;;;;;;;;;;-144.19;100.00;75939.53;5036897;28;19925;-85
2022/04/06 04:12:01;;;;;;;;;;;;;;;-144.19;100.00;75943.47;5053615;28;20082;-89
2022/04/06 04:14:27;;;;;;;;;;;;;;;-144.19;100.00;75957.25;5055437;28;19935;-87
2022/04/06 04:16:54;;;;;;;;;;;;;;;-144.19;100.00;75939.53;5054350;28;19974;-88
2022/04/06 04:19:20;;;;;;;;;;;;;;;-144.19;100.00;75941.50;5054941;28;19960;-89
2022/04/06 04:21:46;;;;;;;;;;;;;;;-144.19;100.00;75953.31;5035817;28;20293;-87
2022/04/06 04:24:16;;;;;;;;;;;;;;;-144.19;100.00;75953.31;5035597;28;19925;-91
2022/04/06 04:26:43;;;;;;;;;;;;;;;-144.19;100.00;75973.00;5035217;28;19925;-88
2022/04/06 04:29:10;;;;;;;;;;;;;;;-144.19;100.00;75953.31;5030050;28;20020;-88
2022/04/06 04:31:36;;;;;;;;;;;;;;;-144.19;100.00;75941.50;5050778;28;19925;-86
2022/04/06 04:34:03;;;;;;;;;;;;;;;-144.19;100.00;75959.22;5052914;28;19925;-86
2022/04/06 04:36:30;;;;;;;;;;;;;;;-144.19;100.00;75953.31;5053865;28;20012;-86
2022/04/06 04:38:56;;;;;;;;;;;;;;;-144.19;100.00;75945.44;5053631;28;20019;-88
2022/04/06 04:41:23;;;;;;;;;;;;;;;-144.19;100.00;75939.53;5045822;28;19935;-86
2022/04/06 04:43:50;;;;;;;;;;;;;;;-144.19;100.00;75937.56;5052495;28;19935;-86
2022/04/06 04:46:17;;;;;;;;;;;;;;;-144.19;100.00;75937.56;5052838;28;19947;-86
2022/04/06 04:48:45;;;;;;;;;;;;;;;-144.19;100.00;75937.56;5035983;28;19986;-86
2022/04/06 04:51:12;;;;;;;;;;;;;;;-144.19;100.00;75929.69;5052722;28;20027;-86
2022/04/06 04:53:38;;;;;;;;;;;;;;;-144.19;100.00;75919.84;5034433;28;20418;-88
2022/04/06 04:56:05;;;;;;;;;;;;;;;-144.19;100.00;75929.69;5035455;28;19925;-87
2022/04/06 04:58:31;;;;;;;;;;;;;;;-144.19;100.00;75923.78;5053093;28;20448;-88
2022/04/06 05:00:58;;;;;;;;;;;;;;;-144.19;100.00;75923.78;5035061;28;19925;-88
2022/04/06 05:03:24;;;;;;;;;;;;;;;-144.19;100.00;75929.69;5053942;28;19978;-89
2022/04/06 05:05:53;;;;;;;;;;;;;;;-144.19;100.00;75933.63;5039452;28;20358;-85
2022/04/06 05:08:24;;;;;;;;;;;;;;;-144.19;100.00;75925.75;5037796;28;20028;-89
2022/04/06 05:10:50;;;;;;;;;;;;;;;-144.19;100.00;75915.91;5038067;28;19925;-89
2022/04/06 05:13:20;;;;;;;;;;;;;;;-144.19;100.00;75910.00;5038698;28;20016;-87
2022/04/06 05:15:48;;;;;;;;;;;;;;;-144.19;100.00;75904.13;5055382;28;19937;-83
2022/04/06 05:18:14;;;;;;;;;;;;;;;-144.19;100.00;75925.75;5039854;28;20298;-88
2022/04/06 05:20:41;;;;;;;;;;;;;;;-144.19;100.00;75925.75;5038879;28;20430;-86
2022/04/06 05:23:07;;;;;;;;;;;;;;;-144.19;100.00;75917.88;5057243;28;19925;-87
2022/04/06 05:25:34;;;;;;;;;;;;;;;-144.19;100.00;75921.81;5040057;28;19924;-86
2022/04/06 05:28:00;;;;;;;;;;;;;;;-144.19;100.00;75925.75;5038561;28;20294;-89
2022/04/06 05:30:26;;;;;;;;;;;;;;;-144.19;100.00;75923.78;5055890;28;20414;-87
2022/04/06 05:32:54;;;;;;;;;;;;;;;-144.19;100.00;75929.69;5055634;28;19928;-89
2022/04/06 05:35:21;;;;;;;;;;;;;;;-144.19;100.00;75913.94;5035952;28;19925;-90
2022/04/06 05:37:47;;;;;;;;;;;;;;;-144.19;100.00;75925.75;5018643;28;19931;-89
2022/04/06 05:40:15;;;;;;;;;;;;;;;-144.19;100.00;75917.88;5019548;28;19925;-86
2022/04/06 05:42:41;;;;;;;;;;;;;;;-144.19;100.00;75915.91;5037642;28;20360;-87
2022/04/06 05:45:08;;;;;;;;;;;;;;;-144.19;100.00;75929.69;5019226;28;20298;-88
2022/04/06 05:47:34;;;;;;;;;;;;;;;-144.19;100.00;75925.75;5036139;28;19925;-88
2022/04/06 05:50:01;;;;;;;;;;;;;;;-144.19;100.00;75929.69;5036323;28;19931;-88
2022/04/06 05:52:27;;;;;;;;;;;;;;;-144.19;100.00;75910.00;5029624;28;19952;-86
2022/04/06 05:54:54;;;;;;;;;;;;;;;-144.19;100.00;75921.81;5023791;28;19931;-86
2022/04/06 05:57:20;;;;;;;;;;;;;;;-144.19;100.00;75913.94;5039251;28;19925;-85
2022/04/06 05:59:47;;;;;;;;;;;;;;;-144.19;100.00;75913.94;5039480;28;19940;-87
2022/04/06 06:02:14;;;;;;;;;;;;;;;-144.19;100.00;75906.06;5039745;28;19925;-87
2022/04/06 06:04:40;;;;;;;;;;;;;;;-144.19;100.00;75892.31;5059045;28;20425;-88
2022/04/06 06:07:07;;;;;;;;;;;;;;;-144.19;100.00;75902.16;5057539;28;20024;-87
2022/04/06 06:09:34;;;;;;;;;;;;;;;-144.19;100.00;75913.94;5060742;28;19947;-87
2022/04/06 06:12:01;;;;;;;;;;;;;;;-144.19;100.00;75915.91;5057562;28;19925;-86
2022/04/06 06:14:27;;;;;;;;;;;;;;;-144.19;100.00;75898.22;5058512;28;19931;-88
2022/04/06 06:16:54;;;;;;;;;;;;;;;-144.19;100.00;75900.19;5056170;28;19948;-88
2022/04/06 06:19:21;;;;;;;;;;;;;;;-144.19;100.00;75902.16;5034020;28;19929;-87
2022/04/06 06:21:47;;;;;;;;;;;;;;;-144.19;100.00;75898.22;5076424;23;19924;-87
2022/04/06 06:24:14;;;;;;;;;;;;;;;-144.19;100.00;75886.41;5031362;28;20272;-87
2022/04/06 06:26:42;;;;;;;;;;;;;;;-144.19;100.00;75896.25;5033492;28;19929;-88
2022/04/06 06:29:08;;;;;;;;;;;;;;;-144.19;100.00;75880.50;5033919;28;19979;-90
2022/04/06 06:31:35;;;;;;;;;;;;;;;-144.19;100.00;75890.34;5032880;28;20311;-88
2022/04/06 06:34:01;;;;;;;;;;;;;;;-144.19;100.00;75900.19;5031584;28;19928;-88
2022/04/06 06:36:28;;;;;;;;;;;;;;;-144.19;100.00;75904.13;5016631;28;19929;-86
2022/04/06 06:38:54;;;;;;;;;;;;;;;-144.19;100.00;75906.06;5017642;28;19945;-87
2022/04/06 06:41:21;;;;;;;;;;;;;;;-144.19;100.00;75902.16;5034956;28;19951;-89
2022/04/06 06:43:48;;;;;;;;;;;;;;;-144.19;100.00;75898.22;5034751;28;19925;-85
2022/04/06 06:46:16;;;;;;;;;;;;;;;-144.19;100.00;75880.50;5035658;28;19925;-86
2022/04/06 06:48:42;;;;;;;;;;;;;;;-144.19;100.00;75874.59;5016765;28;19925;-85
2022/04/06 06:51:09;;;;;;;;;;;;;;;-144.19;100.00;75890.34;5033654;28;19925;-86
2022/04/06 06:53:35;;;;;;;;;;;;;;;-144.19;100.00;75872.63;5015284;28;19925;-86
2022/04/06 06:56:01;;;;;;;;;;;;;;;-144.19;100.00;75876.56;5036410;28;19925;-87
2022/04/06 06:58:28;;;;;;;;;;;;;;;-144.19;100.00;75858.84;5011843;28;19936;-86
2022/04/06 07:00:54;;;;;;;;;;;;;;;-144.19;100.00;75856.88;5032153;28;20302;-88
2022/04/06 07:03:20;;;;;;;;;;;;;;;-144.19;100.00;75850.97;5030236;28;19980;-86
2022/04/06 07:05:48;;;;;;;;;;;;;;;-144.19;100.00;75872.63;5022036;28;20049;-87
2022/04/06 07:08:14;;;;;;;;;;;;;;;-144.19;100.00;75876.56;5025251;28;20311;-85
2022/04/06 07:10:48;;;;;;;;;;;;;;;-144.19;100.00;75858.84;5026372;28;20379;-86
2022/04/06 07:13:16;;;;;;;;;;;;;;;-144.19;100.00;75866.72;5022785;28;19930;-86
2022/04/06 07:15:43;;;;;;;;;;;;;;;-144.19;100.00;75872.63;5022321;28;19925;-86
2022/04/06 07:18:11;;;;;;;;;;;;;;;-144.19;100.00;75843.09;5007634;28;20486;-88
2022/04/06 07:20:38;;;;;;;;;;;;;;;-144.19;100.00;75839.16;5003839;28;19926;-87
2022/04/06 07:23:05;;;;;;;;;;;;;;;-144.19;100.00;75856.88;4997068;28;19925;-85
2022/04/06 07:25:32;;;;;;;;;;;;;;;-144.19;100.00;75845.06;5002274;28;19929;-86
2022/04/06 07:27:59;;;;;;;;;;;;;;;-144.19;100.00;75835.22;5017979;28;19945;-85
2022/04/06 07:30:25;;;;;;;;;;;;;;;-144.19;100.00;75813.59;5015984;28;19932;-86
2022/04/06 07:32:51;;;;;;;;;;;;;;;-144.19;100.00;75819.47;5017130;28;19925;-83
2022/04/06 07:35:18;;;;;;;;;;;;;;;-144.19;100.00;75819.47;5021251;28;19925;-87
2022/04/06 07:37:47;;;;;;;;;;;;;;;-144.19;100.00;75788.00;5015043;28;19932;-87
2022/04/06 07:40:14;;;;;;;;;;;;;;;-144.19;100.00;75756.50;5014937;28;19925;-85
2022/04/06 07:42:41;;;;;;;;;;;;;;;-144.19;100.00;75750.59;5013757;28;19932;-86
2022/04/06 07:45:08;;;;;;;;;;;;;;;-144.19;100.00;75734.84;4998093;28;19932;-84
2022/04/06 07:47:35;;;;;;;;;;;;;;;-144.19;100.00;75736.81;5017191;28;20345;-85
2022/04/06 07:50:03;;;;;;;;;;;;;;;-144.19;100.00;75734.84;4999007;28;20545;-88
2022/04/06 07:52:30;;;;;;;;;;;;;;;-144.19;100.00;75725.03;5013734;28;19929;-84
2022/04/06 07:54:57;;;;;;;;;;;;;;;-144.19;100.00;75732.88;5015361;28;19932;-86
2022/04/06 07:57:24;;;;;;;;;;;;;;;-144.19;100.00;75732.88;5013361;28;19925;-86
2022/04/06 07:59:51;;;;;;;;;;;;;;;-144.19;100.00;75748.63;4994832;28;20004;-86
2022/04/06 08:02:17;;;;;;;;;;;;;;;-144.19;100.00;75774.22;4996472;28;20530;-85
2022/04/06 08:04:46;;;;;;;;;;;;;;;-144.19;100.00;75752.56;5013314;28;19925;-87
2022/04/06 08:07:13;;;;;;;;;;;;;;;-144.19;100.00;75768.31;4997515;28;20383;-89
2022/04/06 08:09:40;;;;;;;;;;;;;;;-144.19;100.00;75766.34;5015063;28;19929;-88
2022/04/06 08:12:06;;;;;;;;;;;;;;;-144.19;100.00;75776.19;5013766;28;19932;-85
2022/04/06 08:14:33;;;;;;;;;;;;;;;-144.19;100.00;75782.09;4996074;28;19931;-86
2022/04/06 08:16:59;;;;;;;;;;;;;;;-144.19;100.00;75778.16;5008367;28;20008;-86
2022/04/06 08:19:26;;;;;;;;;;;;;;;-144.19;100.00;75809.66;5016803;28;19925;-87
2022/04/06 08:21:52;;;;;;;;;;;;;;;-144.19;100.00;75784.06;5017050;28;19925;-83
2022/04/06 08:24:19;;;;;;;;;;;;;;;-144.19;100.00;75791.94;5016131;28;20403;-86
2022/04/06 08:26:46;;;;;;;;;;;;;;;-144.19;100.00;75799.81;5020522;28;19931;-84
2022/04/06 08:29:12;;;;;;;;;;;;;;;-144.19;100.00;75793.91;5013656;28;19936;-83
2022/04/06 08:31:39;;;;;;;;;;;;;;;-144.19;100.00;75768.31;5032793;28;19931;-85
2022/04/06 08:34:06;;;;;;;;;;;;;;;-144.19;100.00;75772.25;5014268;28;20428;-85
2022/04/06 08:36:32;;;;;;;;;;;;;;;-144.19;100.00;75776.19;4996499;28;20299;-86
2022/04/06 08:38:59;;;;;;;;;;;;;;;-144.19;100.00;75780.13;5020509;28;19940;-82
2022/04/06 08:41:28;;;;;;;;;;;;;;;-144.19;100.00;75795.88;5037467;28;19931;-85
2022/04/06 08:43:55;;;;;;;;;;;;;;;-144.19;100.00;75784.06;5018933;28;19943;-85
2022/04/06 08:46:22;;;;;;;;;;;;;;;-144.19;100.00;75791.94;5019288;28;19925;-85
2022/04/06 08:48:49;;;;;;;;;;;;;;;-144.19;100.00;75782.09;5019611;28;19963;-83
2022/04/06 08:51:16;;;;;;;;;;;;;;;-144.19;100.00;75789.97;5026917;28;20023;-86
2022/04/06 08:53:45;;;;;;;;;;;;;;;-144.19;100.00;75778.16;5019158;28;20394;-84
2022/04/06 08:56:14;;;;;;;;;;;;;;;-144.19;100.00;75772.25;5036991;28;19925;-85
2022/04/06 08:58:41;;;;;;;;;;;;;;;-144.19;100.00;75789.97;5017440;28;20056;-83
2022/04/06 09:01:07;;;;;;;;;;;;;;;-144.19;100.00;75774.22;5033249;28;19983;-84
2022/04/06 09:03:34;;;;;;;;;;;;;;;-144.19;100.00;75788.00;5025291;28;20279;-82
2022/04/06 09:06:11;;;;;;;;;;;;;;;-144.19;100.00;75782.09;5028031;28;19929;-84
2022/04/06 09:08:42;;;;;;;;;;;;;;;-144.19;100.00;75784.06;5028075;28;20454;-85
2022/04/06 09:11:10;;;;;;;;;;;;;;;-144.19;100.00;75803.75;5010735;28;19925;-83
2022/04/06 09:13:37;;;;;;;;;;;;;;;-144.19;100.00;75799.81;5008236;28;19940;-83
2022/04/06 09:16:06;;;;;;;;;;;;;;;-144.19;100.00;75803.75;5026052;28;20008;-84
2022/04/06 09:18:35;;;;;;;;;;;;;;;-144.19;100.00;75791.94;5025919;28;19925;-85
2022/04/06 09:21:02;;;;;;;;;;;;;;;-144.19;100.00;75780.13;5027567;28;20413;-83
2022/04/06 09:23:30;;;;;;;;;;;;;;;-144.19;100.00;75803.75;5023900;28;19933;-84
2022/04/06 09:26:01;;;;;;;;;;;;;;;-144.19;100.00;75778.16;5009369;28;19976;-84
2022/04/06 09:28:27;;;;;;;;;;;;;;;-144.19;100.00;75772.25;5023813;28;19925;-85
2022/04/06 09:30:54;;;;;;;;;;;;;;;-144.19;100.00;75797.84;5004328;28;20535;-83
2022/04/06 09:33:20;;;;;;;;;;;;;;;-144.19;100.00;75772.25;5004829;28;20411;-84
2022/04/06 09:35:48;;;;;;;;;;;;;;;-144.19;100.00;75752.56;5026586;28;19936;-84
2022/04/06 09:38:14;;;;;;;;;;;;;;;-144.19;100.00;75764.38;5025983;28;19929;-84
2022/04/06 09:40:41;;;;;;;;;;;;;;;-144.19;100.00;75740.75;5006285;28;20024;-85
2022/04/06 09:43:08;;;;;;;;;;;;;;;-144.19;100.00;75727.00;5006806;28;19960;-84
2022/04/06 09:48:20;;;;;;;;;;;;;;;-144.19;100.00;75732.88;5025305;28;19925;-83
2022/04/06 09:50:56;;;;;;;;;;;;;;;-144.19;100.00;75719.13;5002826;28;19956;-85
2022/04/06 09:53:27;;;;;;;;;;;;;;;-144.19;100.00;75693.53;5007106;28;20014;-84
2022/04/06 09:55:55;;;;;;;;;;;;;;;-144.19;100.00;75693.53;5024755;28;19926;-84
2022/04/06 09:58:22;;;;;;;;;;;;;;;-144.19;100.00;75689.59;5023253;28;19933;-84
2022/04/06 10:00:50;;;;;;;;;;;;;;;-144.19;100.00;75689.59;5024707;28;19929;-84
2022/04/06 10:03:17;;;;;;;;;;;;;;;-144.19;100.00;75693.53;5010484;28;19940;-85
2022/04/06 10:05:46;;;;;;;;;;;;;;;-144.19;100.00;75683.69;5005173;28;19964;-84
2022/04/06 10:08:13;;;;;;;;;;;;;;;-144.19;100.00;75689.59;5033040;28;20060;-84
2022/04/06 10:10:40;;;;;;;;;;;;;;;-144.19;100.00;75673.84;5027095;28;20015;-83
2022/04/06 10:13:07;;;;;;;;;;;;;;;-144.19;100.00;75665.97;5038503;28;19952;-82
2022/04/06 10:15:54;;;;;;;;;;;;;;;-144.19;100.00;75650.22;5027425;28;19925;-85
2022/04/06 10:18:20;;;;;;;;;;;;;;;-144.19;100.00;75673.84;5020368;28;19953;-83
2022/04/06 10:20:54;;;;;;;;;;;;;;;-144.19;100.00;75679.75;5015503;28;20013;-83
2022/04/06 10:23:35;;;;;;;;;;;;;;;-144.19;100.00;75669.91;5010830;28;19936;-84
2022/04/06 10:26:21;;;;;;;;;;;;;;;-144.19;100.00;75658.09;5038105;28;20011;-85
2022/04/06 10:28:51;;;;;;;;;;;;;;;-144.19;100.00;75669.91;5038032;28;19925;-83
2022/04/06 10:31:22;;;;;;;;;;;;;;;-144.19;100.00;75665.97;5017300;28;19953;-85
2022/04/06 10:33:50;;;;;;;;;;;;;;;-144.19;100.00;75675.81;5047173;28;19925;-83
2022/04/06 10:36:18;;;;;;;;;;;;;;;-144.19;100.00;75662.03;5048725;28;19925;-83
2022/04/06 10:39:23;;;;;;;;;;;;;;;-144.19;100.00;75675.81;5031279;28;19925;-81
2022/04/06 10:42:24;;;;;;;;;;;;;;;;;;;;;
2022/04/06 10:45:23;;;;;;;;;;;;;;;-144.19;100.00;75705.34;5030141;28;19925;-84
2022/04/06 10:48:10;;;;;;;;;;;;;;;-144.19;100.00;75685.66;5031673;28;19925;-84
2022/04/06 10:50:37;;;;;;;;;;;;;;;-144.19;100.00;75685.66;5030191;28;19932;-84
2022/04/06 10:53:21;;;;;;;;;;;;;;;-144.19;100.00;75693.53;5044101;28;19924;-84
2022/04/06 10:56:03;;;;;;;;;;;;;;;-144.19;100.00;75697.47;5037881;28;19988;-82
2022/04/06 10:59:01;;;;;;;;;;;;;;;-144.19;100.00;75691.56;5019198;28;19929;-82
2022/04/06 11:02:10;;;;;;;;;;;;;;;;;;;;;
2022/04/06 11:05:09;;;;;;;;;;;;;;;-144.19;100.00;75707.31;5036564;28;19976;-85
2022/04/06 11:10:24;;;;;;;;;;;;;;;-144.19;100.00;75736.81;5041648;28;20020;-85
2022/04/06 11:13:21;;;;;;;;;;;;;;;;;;;;;
2022/04/06 11:19:28;;;;;;;;;;;;;;;-144.19;100.00;75736.81;4948748;29;19998;-82
2022/04/06 11:21:58;;;;;;;;;;;;;;;-144.19;100.00;75740.75;4975151;28;19937;-85
2022/04/06 11:24:33;;;;;;;;;;;;;;;-144.19;100.00;75736.81;5030062;28;19925;-85
2022/04/06 11:27:24;;;;;;;;;;;;;;;-144.19;100.00;75744.69;5043134;28;19925;-83
2022/04/06 11:29:57;;;;;;;;;;;;;;;-144.19;100.00;75736.81;5031242;28;19943;-83
2022/04/06 11:32:27;;;;;;;;;;;;;;;-144.19;100.00;75721.09;5046718;28;19925;-83
2022/04/06 11:35:04;;;;;;;;;;;;;;;-144.19;100.00;75744.69;5018763;28;19929;-85
2022/04/06 11:37:32;;;;;;;;;;;;;;;-144.19;100.00;75717.16;5009400;28;19926;-84
2022/04/06 11:39:59;;;;;;;;;;;;;;;-144.19;100.00;75713.22;5007727;28;19925;-83
2022/04/06 11:42:33;;;;;;;;;;;;;;;-144.19;100.00;75705.34;5011243;28;20000;-85
2022/04/06 11:45:00;;;;;;;;;;;;;;;-144.19;100.00;75711.25;5040393;28;19925;-80
2022/04/06 11:47:27;;;;;;;;;;;;;;;-144.19;100.00;75707.31;5030517;28;19925;-81
2022/04/06 11:49:58;;;;;;;;;;;;;;;-144.19;100.00;75730.91;5016261;28;19991;-81
2022/04/06 11:52:41;;;;;;;;;;;;;;;-144.19;100.00;75736.81;5016543;28;19926;-84
2022/04/06 11:55:09;;;;;;;;;;;;;;;-144.19;100.00;75736.81;5015131;28;19948;-82
2022/04/06 11:57:45;;;;;;;;;;;;;;;-144.19;100.00;75725.03;5015534;28;19960;-83
2022/04/06 12:00:17;;;;;;;;;;;;;;;-144.19;100.00;75701.41;5025824;28;20399;-82
2022/04/06 12:02:58;;;;;;;;;;;;;;;-144.19;100.00;75721.09;5025790;28;19925;-82
2022/04/06 12:05:50;;;;;;;;;;;;;;;-144.19;100.00;75711.25;5027498;28;19925;-82
2022/04/06 12:08:23;;;;;;;;;;;;;;;-144.19;100.00;75717.16;5027166;28;19925;-82
2022/04/06 12:10:56;;;;;;;;;;;;;;;-144.19;100.00;75713.22;5026151;28;19925;-83
2022/04/06 12:13:35;;;;;;;;;;;;;;;-144.19;100.00;75693.53;5029903;28;19929;-82
2022/04/06 12:16:05;;;;;;;;;;;;;;;-144.19;100.00;75677.78;5032399;28;19936;-81
2022/04/06 12:18:33;;;;;;;;;;;;;;;-144.19;100.00;75681.72;5029995;28;19925;-82
2022/04/06 12:21:01;;;;;;;;;;;;;;;-144.19;100.00;75689.59;5048673;28;20375;-81
2022/04/06 12:23:29;;;;;;;;;;;;;;;-144.19;100.00;75740.75;5041333;23;19935;-81
2022/04/06 12:25:56;;;;;;;;;;;;;;;-144.19;100.00;75727.00;5034543;28;20398;-83
2022/04/06 12:28:27;;;;;;;;;;;;;;;-144.19;100.00;75721.09;5035812;28;19924;-84
2022/04/06 12:30:53;;;;;;;;;;;;;;;-144.19;100.00;75736.81;5015463;28;19925;-81
2022/04/06 12:33:32;;;;;;;;;;;;;;;-144.19;100.00;75715.19;5022580;28;19977;-81
2022/04/06 12:36:06;;;;;;;;;;;;;;;-144.19;100.00;75711.25;4997328;28;19926;-81
2022/04/06 12:38:32;;;;;;;;;;;;;;;-144.19;100.00;75701.41;5023669;28;19935;-81
2022/04/06 12:41:05;;;;;;;;;;;;;;;-144.19;100.00;75705.34;5026716;28;19930;-83
2022/04/06 12:43:45;;;;;;;;;;;;;;;-144.19;100.00;75711.25;5004061;28;20454;-82